Time;durP1;ratioP1;P1;durP2;ratioP2;P2;SDS_P1;SDS_P2;PMS_P1;PMS_P2;Temp;Humidity;BMP_temperature;BMP_pressure;BME280_temperature;BME280_humidity;BME280_pressure;Samples;Min_cycle;Max_cycle;Signal;HPM_P1;HPM_P2
2021/07/30 14:49:45;;;;;;;6.57;6.07;;;56.30;8.80;;;;;;21237393;27;75143;-65
2021/07/30 15:00:18;;;;;;;7.60;7.00;;;55.80;8.70;;;;;;21498968;27;74802;-66
2021/07/30 15:10:20;;;;;;;7.10;6.50;;;54.80;9.00;;;;;;21367247;27;80129;-65
2021/07/30 15:20:25;;;;;;;5.22;4.72;;;49.60;10.40;;;;;;21362022;27;80476;-66
2021/07/30 15:30:29;;;;;;;5.65;4.47;;;43.10;12.10;;;;;;21277595;27;81238;-66
2021/07/30 15:40:39;;;;;;;8.25;4.63;;;41.60;13.10;;;;;;21279260;27;80524;-64
2021/07/30 15:50:41;;;;;;;6.40;5.50;;;39.70;14.40;;;;;;21276898;27;80123;-65
2021/07/30 16:00:43;;;;;;;5.07;4.57;;;38.80;15.00;;;;;;21276456;27;80307;-67
2021/07/30 16:10:49;;;;;;;8.52;5.20;;;39.00;15.50;;;;;;21224613;27;79892;-66
2021/07/30 16:20:51;;;;;;;6.40;5.10;;;39.10;16.10;;;;;;21217603;27;80658;-67
2021/07/30 16:30:52;;;;;;;7.43;5.82;;;41.60;14.80;;;;;;21218777;27;82522;-67
2021/07/30 16:40:54;;;;;;;5.97;5.32;;;40.50;16.00;;;;;;21233954;27;80748;-66
2021/07/30 16:50:58;;;;;;;5.70;5.07;;;39.90;16.90;;;;;;21213374;27;80937;-67
2021/07/30 17:01:00;;;;;;;7.20;5.32;;;37.90;18.30;;;;;;21216167;27;82926;-65
2021/07/30 17:11:03;;;;;;;5.90;5.30;;;38.20;18.50;;;;;;21215069;27;81162;-66
2021/07/30 17:21:05;;;;;;;9.43;6.47;;;38.10;18.50;;;;;;21212333;27;80099;-65
2021/07/30 17:31:08;;;;;;;8.80;5.22;;;39.70;17.50;;;;;;21213528;27;81180;-64
2021/07/30 17:41:15;;;;;;;7.40;5.40;;;38.40;18.50;;;;;;21213079;27;79948;-62
2021/07/30 17:51:21;;;;;;;8.63;6.05;;;36.50;20.00;;;;;;21212453;27;81876;-64
2021/07/30 18:01:22;;;;;;;9.30;5.57;;;36.70;20.20;;;;;;21230478;27;81970;-63
2021/07/30 18:11:24;;;;;;;8.93;5.88;;;40.30;17.30;;;;;;21210943;27;80144;-64
2021/07/30 18:21:26;;;;;;;6.22;4.63;;;38.90;18.00;;;;;;21202062;27;80669;-64
2021/07/30 18:31:28;;;;;;;8.23;4.47;;;39.70;17.40;;;;;;21204685;27;80495;-65
2021/07/30 18:41:31;;;;;;;6.68;3.80;;;36.10;19.60;;;;;;21208386;27;80035;-64
2021/07/30 18:51:33;;;;;;;6.40;3.70;;;34.70;20.10;;;;;;21227704;27;80584;-69
2021/07/30 19:01:34;;;;;;;4.30;3.25;;;34.60;19.40;;;;;;21226387;27;81897;-67
2021/07/30 19:11:36;;;;;;;4.97;3.63;;;33.40;20.20;;;;;;21224839;27;81266;-68
2021/07/30 19:21:38;;;;;;;7.47;3.47;;;32.90;20.50;;;;;;21225232;27;81979;-69
2021/07/30 19:31:39;;;;;;;4.40;3.42;;;32.60;20.90;;;;;;21225114;27;79874;-68
2021/07/30 19:41:41;;;;;;;4.85;3.53;;;32.30;21.30;;;;;;21241516;27;81742;-68
2021/07/30 19:51:43;;;;;;;4.90;3.15;;;32.00;21.80;;;;;;21326015;27;80542;-67
2021/07/30 20:01:47;;;;;;;3.17;2.35;;;31.80;22.30;;;;;;21305714;27;80008;-69
2021/07/30 20:11:49;;;;;;;4.63;2.65;;;31.60;22.60;;;;;;21305400;27;80757;-68
2021/07/30 20:21:51;;;;;;;6.60;2.40;;;31.30;22.80;;;;;;21254377;27;81134;-69
2021/07/30 20:31:53;;;;;;;7.35;2.05;;;31.10;23.10;;;;;;21216950;27;80755;-68
2021/07/30 20:41:55;;;;;;;3.13;2.20;;;30.90;23.50;;;;;;21235151;27;80540;-68
2021/07/30 20:51:57;;;;;;;3.28;1.73;;;30.70;23.70;;;;;;21216115;27;82130;-68
2021/07/30 21:01:58;;;;;;;4.43;2.20;;;30.50;24.20;;;;;;21234248;27;80991;-70
2021/07/30 21:12:00;;;;;;;6.13;2.60;;;30.30;24.80;;;;;;21232464;27;80599;-71
2021/07/30 21:22:02;;;;;;;8.73;2.63;;;30.20;25.30;;;;;;21235072;27;81850;-75
2021/07/30 21:32:04;;;;;;;5.53;1.98;;;30.00;25.70;;;;;;21231053;27;80915;-71
2021/07/30 21:42:06;;;;;;;3.90;1.30;;;29.80;25.80;;;;;;21324730;27;79826;-70
2021/07/30 21:52:08;;;;;;;4.50;1.40;;;29.60;25.10;;;;;;21310918;27;82211;-76
2021/07/30 22:02:10;;;;;;;3.53;1.73;;;29.40;24.80;;;;;;21325321;27;80719;-72
2021/07/30 22:12:11;;;;;;;3.42;1.55;;;29.30;24.90;;;;;;21298699;27;80787;-74
2021/07/30 22:22:13;;;;;;;3.13;1.33;;;29.10;24.90;;;;;;21315515;27;80701;-69
2021/07/30 22:32:15;;;;;;;3.95;1.63;;;29.00;24.90;;;;;;21316293;27;80734;-71
2021/07/30 22:52:22;;;;;;;2.90;1.30;;;28.70;24.30;;;;;;21313478;27;80975;-71
2021/07/30 23:02:25;;;;;;;4.10;1.90;;;28.50;24.40;;;;;;21296153;27;80888;-71
2021/07/30 23:12:27;;;;;;;3.17;1.40;;;28.40;24.70;;;;;;21293695;27;81209;-70
2021/07/30 23:22:29;;;;;;;2.70;1.60;;;28.20;25.10;;;;;;21312101;27;80200;-77
2021/07/30 23:32:30;;;;;;;3.88;1.42;;;28.00;25.70;;;;;;21327795;27;82142;-76
2021/07/30 23:42:32;;;;;;;3.42;1.85;;;27.90;26.00;;;;;;21308388;27;81101;-73
2021/07/30 23:52:34;;;;;;;3.40;1.60;;;27.80;26.40;;;;;;21325542;27;80724;-77
